Time;durP1;ratioP1;P1;durP2;ratioP2;P2;SDS_P1;SDS_P2;PMS_P1;PMS_P2;Temp;Humidity;BMP_temperature;BMP_pressure;BME280_temperature;BME280_humidity;BME280_pressure;Samples;Min_cycle;Max_cycle;Signal;HPM_P1;HPM_P2
2022/12/17 13:06:14;;;;;;;4.03;3.75;;;-3.10;97.60;;;;;;5029093;28;20210;-68
2022/12/17 13:08:42;;;;;;;7.97;3.13;;;-3.20;97.60;;;;;;5029626;28;20328;-68
2022/12/17 13:11:28;;;;;;;13.20;3.08;;;-3.20;97.80;;;;;;5029317;28;20699;-68
2022/12/17 13:14:01;;;;;;;5.45;4.35;;;-3.50;97.60;;;;;;5009810;28;20313;-68
2022/12/17 13:16:37;;;;;;;4.72;2.90;;;-3.50;98.20;;;;;;5009016;28;20206;-68
2022/12/17 13:19:20;;;;;;;1.98;1.88;;;-3.50;98.30;;;;;;5019308;28;20209;-68
2022/12/17 13:21:47;;;;;;;3.13;3.03;;;-3.40;98.40;;;;;;5028269;28;20200;-68
2022/12/17 13:24:24;;;;;;;5.45;2.10;;;-3.40;98.30;;;;;;5028947;28;20208;-68
2022/12/17 13:26:51;;;;;;;11.85;6.00;;;-3.50;98.10;;;;;;5028424;28;20206;-68
2022/12/17 13:29:26;;;;;;;3.78;3.47;;;-3.50;98.10;;;;;;5030048;28;20742;-68
2022/12/17 13:32:19;;;;;;;3.33;3.05;;;-3.50;98.40;;;;;;5037230;28;20687;-69
2022/12/17 13:34:58;;;;;;;5.20;4.90;;;-3.50;98.50;;;;;;5048555;28;20202;-68
2022/12/17 13:37:35;;;;;;;5.68;5.25;;;-3.40;98.50;;;;;;5033250;28;20687;-68
2022/12/17 13:40:19;;;;;;;4.10;3.30;;;-3.40;98.30;;;;;;5028881;28;20200;-68
2022/12/17 13:42:47;;;;;;;2.58;2.33;;;-3.40;98.00;;;;;;5031183;28;20627;-68
2022/12/17 13:45:16;;;;;;;8.13;4.43;;;-3.40;98.10;;;;;;5045937;28;20410;-68
2022/12/17 13:47:54;;;;;;;3.63;3.42;;;-3.40;98.00;;;;;;5047760;28;20324;-68
2022/12/17 13:50:24;;;;;;;2.65;2.55;;;-3.40;97.90;;;;;;5046763;28;20227;-68
2022/12/17 13:52:51;;;;;;;4.75;2.80;;;-3.50;98.00;;;;;;5028345;28;20208;-67
2022/12/17 13:55:19;;;;;;;4.05;3.75;;;-3.50;98.10;;;;;;5027768;28;20686;-68
2022/12/17 13:57:48;;;;;;;3.42;2.40;;;-3.50;98.20;;;;;;5027660;28;20207;-69
2022/12/17 14:00:21;;;;;;;6.70;3.63;;;-3.40;98.10;;;;;;5028882;28;20208;-68
2022/12/17 14:02:48;;;;;;;7.13;5.97;;;-3.40;97.70;;;;;;5029396;28;20204;-68
2022/12/17 14:05:33;;;;;;;2.53;2.42;;;-3.50;97.50;;;;;;5028307;28;20635;-69
2022/12/17 14:08:01;;;;;;;3.10;2.90;;;-3.60;97.40;;;;;;5047602;28;20318;-68
2022/12/17 14:10:29;;;;;;;3.05;2.10;;;-3.70;97.40;;;;;;5047134;28;20223;-69
2022/12/17 14:13:04;;;;;;;9.00;4.55;;;-3.70;97.50;;;;;;5008624;28;20205;-68
2022/12/17 14:15:32;;;;;;;2.13;2.05;;;-3.80;97.90;;;;;;5011458;28;20189;-67
2022/12/17 14:17:59;;;;;;;1.75;1.75;;;-3.80;97.80;;;;;;5027703;28;20765;-69
2022/12/17 14:20:32;;;;;;;4.40;4.15;;;-4.00;97.90;;;;;;5030732;28;20211;-68
2022/12/17 14:23:03;;;;;;;2.78;2.67;;;-4.10;98.10;;;;;;5048091;28;20286;-68
2022/12/17 14:25:33;;;;;;;1.85;1.75;;;-4.10;98.20;;;;;;5027506;28;20236;-68
2022/12/17 14:28:02;;;;;;;2.60;2.50;;;-4.10;98.30;;;;;;5039171;28;20207;-68
2022/12/17 14:30:36;;;;;;;2.53;1.67;;;-4.10;98.30;;;;;;5036466;28;20221;-69
2022/12/17 14:33:03;;;;;;;6.88;3.25;;;-4.20;98.10;;;;;;5027215;28;20663;-69
2022/12/17 14:35:36;;;;;;;3.33;3.22;;;-4.10;99.90;;;;;;5047215;28;20207;-71
2022/12/17 14:38:03;;;;;;;2.42;2.33;;;-4.40;98.10;;;;;;5030635;28;20565;-68
2022/12/17 14:40:30;;;;;;;11.48;6.07;;;-4.40;98.30;;;;;;5010423;28;20271;-68
2022/12/17 14:43:00;;;;;;;5.85;5.38;;;-4.40;98.50;;;;;;5031709;28;20204;-68
2022/12/17 14:45:28;;;;;;;5.70;5.22;;;-4.40;98.50;;;;;;5027486;28;20208;-68
2022/12/17 14:47:57;;;;;;;2.22;2.13;;;-4.50;98.60;;;;;;5027584;28;20260;-68
2022/12/17 14:50:29;;;;;;;2.60;2.38;;;-4.50;98.70;;;;;;5028880;28;20224;-68
2022/12/17 14:52:59;;;;;;;3.03;2.85;;;-4.50;98.60;;;;;;5047737;28;20207;-67
2022/12/17 14:55:32;;;;;;;2.28;2.17;;;-4.60;98.50;;;;;;5045196;28;20567;-68
2022/12/17 14:58:20;;;;;;;17.80;6.45;;;-4.60;98.50;;;;;;5031600;28;20224;-68
2022/12/17 15:00:50;;;;;;;5.35;4.85;;;-4.60;98.60;;;;;;5041131;28;20212;-68
2022/12/17 15:03:20;;;;;;;7.65;7.00;;;-4.60;98.60;;;;;;5027410;28;20203;-68
2022/12/17 15:05:51;;;;;;;2.10;2.00;;;-4.50;98.60;;;;;;5029100;28;20291;-68
2022/12/17 15:08:20;;;;;;;2.97;2.88;;;-4.50;98.50;;;;;;5047024;28;20204;-68
2022/12/17 15:10:47;;;;;;;2.63;2.53;;;-4.60;98.40;;;;;;5042038;28;20697;-67
2022/12/17 15:13:14;;;;;;;4.15;3.42;;;-4.60;98.50;;;;;;5027526;28;20203;-68
2022/12/17 15:15:41;;;;;;;13.68;4.10;;;-4.60;98.50;;;;;;5027956;28;20204;-68
2022/12/17 15:18:08;;;;;;;8.98;6.90;;;-4.60;98.40;;;;;;5026894;28;20204;-68
2022/12/17 15:20:35;;;;;;;2.95;2.67;;;-4.70;98.40;;;;;;5030395;28;20223;-67
2022/12/17 15:23:02;;;;;;;4.32;4.03;;;-4.80;98.60;;;;;;5037836;28;20206;-67
2022/12/17 15:25:30;;;;;;;4.05;2.53;;;-4.80;98.60;;;;;;5039318;28;20679;-69
2022/12/17 15:27:57;;;;;;;4.03;3.92;;;-4.80;98.70;;;;;;5029768;28;20213;-68
2022/12/17 15:30:24;;;;;;;4.97;2.85;;;-4.90;98.60;;;;;;5035865;28;20656;-68
2022/12/17 15:32:50;;;;;;;5.32;4.93;;;-4.90;98.60;;;;;;5047240;28;20211;-69
2022/12/17 15:35:17;;;;;;;8.68;5.57;;;-4.90;99.90;;;;;;5037313;28;20293;-68
2022/12/17 15:37:44;;;;;;;3.28;3.08;;;-4.90;98.40;;;;;;5038479;28;20213;-68
2022/12/17 15:40:11;;;;;;;5.45;2.20;;;-5.00;98.60;;;;;;5036376;28;20674;-68
2022/12/17 15:45:26;;;;;;;11.07;6.65;;;-5.10;98.50;;;;;;5029897;28;20286;-67
2022/12/17 15:47:53;;;;;;;1.50;1.50;;;-5.10;98.50;;;;;;5029895;28;20219;-68
2022/12/17 15:50:20;;;;;;;6.75;3.65;;;-5.20;99.90;;;;;;5033362;28;20323;-68
2022/12/17 15:52:47;;;;;;;4.93;4.65;;;-5.30;98.40;;;;;;5050735;28;20209;-68
2022/12/17 15:55:14;;;;;;;8.23;6.05;;;-5.30;98.40;;;;;;5050247;28;20692;-68
2022/12/17 15:57:43;;;;;;;3.22;3.03;;;-5.40;98.40;;;;;;5033572;28;20232;-68
2022/12/17 16:00:11;;;;;;;1.85;1.80;;;-5.40;98.70;;;;;;5046107;28;20210;-67
2022/12/17 16:02:38;;;;;;;2.17;2.08;;;-5.30;98.90;;;;;;5034337;28;20211;-67
2022/12/17 16:05:06;;;;;;;1.13;1.13;;;-5.30;98.90;;;;;;5030727;28;20202;-68
2022/12/17 16:07:32;;;;;;;2.53;2.33;;;-5.30;98.70;;;;;;5042583;28;20582;-67
2022/12/17 16:09:59;;;;;;;5.75;4.13;;;-5.40;98.50;;;;;;5044601;28;20318;-67
2022/12/17 16:12:26;;;;;;;2.78;2.67;;;-5.50;98.40;;;;;;5030422;28;20216;-67
2022/12/17 16:14:54;;;;;;;1.17;1.17;;;-5.60;98.30;;;;;;5029791;28;20213;-68
2022/12/17 16:17:21;;;;;;;4.35;3.20;;;-5.70;98.40;;;;;;5029939;28;20218;-68
2022/12/17 16:19:48;;;;;;;4.40;4.15;;;-5.70;99.00;;;;;;5030237;28;20213;-68
2022/12/17 16:22:14;;;;;;;6.20;5.72;;;-5.80;98.50;;;;;;5035399;28;20285;-67
2022/12/17 16:24:41;;;;;;;1.00;1.00;;;-5.90;98.30;;;;;;5049916;28;20215;-68
2022/12/17 16:27:08;;;;;;;2.40;2.30;;;-5.90;98.30;;;;;;5046995;28;20206;-68
2022/12/17 16:29:35;;;;;;;2.70;2.50;;;-5.90;99.90;;;;;;5048961;28;20229;-69
2022/12/17 16:32:03;;;;;;;3.33;3.08;;;-5.90;98.60;;;;;;5033683;28;20207;-68
2022/12/17 16:34:30;;;;;;;5.25;3.42;;;-5.80;99.90;;;;;;5030239;28;20207;-68
2022/12/17 16:36:57;;;;;;;2.10;2.03;;;-5.90;98.30;;;;;;5041519;28;20523;-67
2022/12/17 16:39:23;;;;;;;5.03;2.78;;;-5.80;98.50;;;;;;5049454;28;20213;-68
2022/12/17 16:41:50;;;;;;;7.45;3.28;;;-5.80;98.60;;;;;;5039711;28;20201;-68
2022/12/17 16:44:17;;;;;;;4.80;4.38;;;-5.80;98.60;;;;;;5041700;28;20218;-67
2022/12/17 16:46:45;;;;;;;5.18;4.88;;;-5.90;98.50;;;;;;5048971;28;20205;-69
2022/12/17 16:49:16;;;;;;;6.90;4.63;;;-5.90;98.70;;;;;;5049471;28;20696;-68
2022/12/17 16:51:44;;;;;;;4.50;3.85;;;-5.90;98.60;;;;;;5036941;28;20288;-69
2022/12/17 16:54:13;;;;;;;1.77;1.67;;;-5.90;98.40;;;;;;5029278;28;20731;-71
2022/12/17 16:56:41;;;;;;;2.83;2.72;;;-5.90;98.20;;;;;;5035867;28;20267;-69
2022/12/17 16:59:09;;;;;;;2.67;2.08;;;-5.90;98.00;;;;;;5044928;28;20215;-69
2022/12/17 17:01:37;;;;;;;2.45;2.35;;;-5.90;97.80;;;;;;5049188;28;20212;-69
2022/12/17 17:04:04;;;;;;;1.80;1.75;;;-6.00;97.70;;;;;;5045846;28;20209;-68
2022/12/17 17:06:37;;;;;;;3.50;3.05;;;-6.10;97.70;;;;;;5047553;28;20702;-68
2022/12/17 17:09:04;;;;;;;0.77;0.77;;;-5.80;99.90;;;;;;5039822;28;20213;-69
2022/12/17 17:11:31;;;;;;;2.38;2.05;;;-6.10;97.60;;;;;;5029271;28;20240;-68
2022/12/17 17:13:58;;;;;;;1.42;1.42;;;-6.10;97.50;;;;;;5030148;28;20193;-69
2022/12/17 17:16:25;;;;;;;3.70;3.60;;;-6.10;97.40;;;;;;5028939;28;20308;-69
2022/12/17 17:18:53;;;;;;;4.75;4.55;;;-6.10;97.20;;;;;;5022084;28;20637;-69
2022/12/17 17:21:28;;;;;;;3.15;2.45;;;-6.20;97.00;;;;;;5029864;28;20188;-69
2022/12/17 17:24:00;;;;;;;4.72;4.32;;;-6.20;96.90;;;;;;5019707;28;20196;-68
2022/12/17 17:26:27;;;;;;;2.35;2.25;;;-6.20;96.70;;;;;;5048309;28;20247;-68
2022/12/17 17:28:54;;;;;;;2.28;1.77;;;-6.30;96.60;;;;;;5045153;28;20208;-68
2022/12/17 17:31:22;;;;;;;2.55;2.45;;;-6.30;96.80;;;;;;5028746;28;20597;-68
2022/12/17 17:33:50;;;;;;;2.20;2.10;;;-6.30;96.80;;;;;;5028412;28;20193;-70
2022/12/17 17:36:19;;;;;;;2.97;2.78;;;-6.30;96.90;;;;;;5045366;28;20212;-69
2022/12/17 17:38:47;;;;;;;2.60;2.50;;;-6.40;97.10;;;;;;5041130;28;20208;-69
2022/12/17 17:41:17;;;;;;;2.08;1.90;;;-6.40;97.40;;;;;;5028231;28;20209;-69
2022/12/17 17:43:45;;;;;;;0.90;0.90;;;-5.90;99.90;;;;;;5028209;28;20204;-69
2022/12/17 17:46:14;;;;;;;2.50;2.40;;;-6.50;97.90;;;;;;5042933;28;20319;-69
2022/12/17 17:48:41;;;;;;;1.42;1.42;;;-6.40;98.20;;;;;;5028172;28;20305;-69
2022/12/17 17:51:10;;;;;;;2.95;2.67;;;-6.40;98.30;;;;;;5028507;28;20229;-69
2022/12/17 17:53:38;;;;;;;8.77;4.70;;;-6.50;98.50;;;;;;5029768;28;20311;-69
2022/12/17 17:56:06;;;;;;;1.73;1.67;;;-6.50;98.80;;;;;;5028370;28;20198;-69
2022/12/17 17:58:34;;;;;;;4.88;4.35;;;-6.40;98.80;;;;;;5028706;28;20194;-69
2022/12/17 18:01:08;;;;;;;5.93;4.65;;;-6.40;98.80;;;;;;5033995;28;20201;-70
2022/12/17 18:03:36;;;;;;;4.93;4.55;;;-6.30;98.90;;;;;;5028706;28;20204;-69
2022/12/17 18:06:03;;;;;;;3.72;2.65;;;-6.40;99.00;;;;;;5027334;28;20308;-69
2022/12/17 18:08:30;;;;;;;6.13;5.68;;;-6.30;99.10;;;;;;5028024;28;20192;-69
2022/12/17 18:10:58;;;;;;;1.70;1.60;;;-6.30;99.20;;;;;;5028808;28;20216;-69
2022/12/17 18:16:12;;;;;;;4.53;3.35;;;-6.30;99.50;;;;;;5028824;28;20267;-69
2022/12/17 18:18:39;;;;;;;2.63;2.53;;;-6.30;99.60;;;;;;5027944;28;20212;-69
2022/12/17 18:21:08;;;;;;;5.35;5.05;;;-6.40;99.60;;;;;;5036827;28;20193;-69
2022/12/17 18:23:36;;;;;;;1.08;1.08;;;-6.40;99.80;;;;;;5016742;28;20275;-69
2022/12/17 18:26:08;;;;;;;2.13;2.03;;;-6.30;99.90;;;;;;5044621;28;20195;-69
2022/12/17 18:28:35;;;;;;;4.18;3.88;;;-6.30;99.80;;;;;;5043487;28;20196;-68
2022/12/17 18:31:11;;;;;;;7.63;6.05;;;-6.30;99.90;;;;;;5035142;28;20234;-69
2022/12/17 18:33:40;;;;;;;2.95;2.72;;;-6.30;99.90;;;;;;5028285;28;20258;-69
2022/12/17 18:36:12;;;;;;;3.60;2.88;;;-6.20;99.90;;;;;;5047026;28;20287;-69
2022/12/17 18:38:39;;;;;;;2.00;1.90;;;-6.30;99.90;;;;;;5041992;28;20280;-68
2022/12/17 18:43:21;;;;;;;9.18;4.20;;;-6.20;99.90;;;;;;5030333;28;20500;-70
2022/12/17 18:43:54;;;;;;;3.42;3.28;;;-6.30;99.90;;;;;;5033592;28;20211;-69
2022/12/17 18:46:22;;;;;;;1.73;1.73;;;-6.30;99.90;;;;;;5047057;28;20200;-69
2022/12/17 18:48:50;;;;;;;1.77;1.77;;;-6.40;99.90;;;;;;5047113;28;20627;-69
2022/12/17 18:51:17;;;;;;;1.15;1.15;;;-6.40;99.90;;;;;;5036107;28;20216;-68
2022/12/17 18:53:44;;;;;;;3.08;2.97;;;-6.40;99.90;;;;;;5027573;28;20197;-69
2022/12/17 18:56:12;;;;;;;3.72;2.70;;;-6.30;99.90;;;;;;5030514;28;20198;-68
2022/12/17 18:58:39;;;;;;;1.50;1.50;;;-6.30;99.90;;;;;;5039704;28;20189;-69
2022/12/17 19:01:06;;;;;;;5.63;5.13;;;-6.30;99.90;;;;;;5028139;28;20204;-68
2022/12/17 19:03:34;;;;;;;1.60;1.60;;;-6.30;99.90;;;;;;5026843;28;20200;-69
2022/12/17 19:06:05;;;;;;;5.63;3.70;;;-6.40;99.90;;;;;;5040802;28;20196;-68
2022/12/17 19:08:34;;;;;;;4.53;4.13;;;-6.50;99.90;;;;;;5046856;28;20202;-69
2022/12/17 19:11:04;;;;;;;3.08;2.90;;;-6.50;99.90;;;;;;5030309;28;20561;-68
2022/12/17 19:13:32;;;;;;;2.55;2.45;;;-6.50;99.90;;;;;;5027383;28;20197;-68
2022/12/17 19:16:05;;;;;;;1.52;1.50;;;-6.60;99.90;;;;;;5026980;28;20207;-69
2022/12/17 19:18:32;;;;;;;2.13;1.67;;;-6.50;99.90;;;;;;5016460;28;20315;-69
2022/12/17 19:21:00;;;;;;;5.57;5.07;;;-6.50;99.90;;;;;;5051556;28;20294;-69
2022/12/17 19:23:29;;;;;;;13.40;8.95;;;-6.40;99.90;;;;;;5034216;28;20545;-69
2022/12/17 19:25:55;;;;;;;5.53;5.00;;;-6.30;99.90;;;;;;5030684;28;20208;-68
2022/12/17 19:28:23;;;;;;;3.58;3.25;;;-6.40;99.90;;;;;;5032062;28;20207;-69
2022/12/17 19:30:56;;;;;;;5.07;2.55;;;-6.20;99.90;;;;;;5030702;28;20229;-69
2022/12/17 19:33:23;;;;;;;4.43;4.15;;;-6.30;99.90;;;;;;5016469;28;20605;-68
2022/12/17 19:35:49;;;;;;;3.80;3.60;;;-6.30;99.90;;;;;;5032452;28;20212;-70
2022/12/17 19:38:18;;;;;;;3.13;2.80;;;-6.40;99.90;;;;;;5050463;28;20199;-68
2022/12/17 19:40:45;;;;;;;2.35;2.15;;;-6.40;99.90;;;;;;5050634;28;20209;-68
2022/12/17 19:43:12;;;;;;;4.65;4.35;;;-6.30;99.90;;;;;;5044784;28;20200;-69
2022/12/17 19:45:38;;;;;;;3.40;3.17;;;-6.30;99.90;;;;;;5049921;28;20287;-69
2022/12/17 19:48:05;;;;;;;3.28;3.08;;;-6.30;99.90;;;;;;5049198;28;20211;-69
2022/12/17 19:50:35;;;;;;;3.03;2.78;;;-6.30;99.90;;;;;;5050584;28;20196;-69
2022/12/17 19:53:02;;;;;;;1.60;1.60;;;-6.30;99.90;;;;;;5050212;28;20203;-68
2022/12/17 19:55:30;;;;;;;4.85;4.45;;;-6.30;99.90;;;;;;5050400;28;20209;-72
2022/12/17 19:57:57;;;;;;;2.33;2.17;;;-6.30;99.90;;;;;;5031804;28;20192;-68
2022/12/17 20:00:23;;;;;;;6.13;4.47;;;-6.40;99.90;;;;;;5049858;28;20196;-68
2022/12/17 20:02:50;;;;;;;3.05;2.85;;;-6.30;99.90;;;;;;5031146;28;20667;-69
2022/12/17 20:05:17;;;;;;;3.05;2.75;;;-6.40;99.80;;;;;;5030320;28;20208;-69
2022/12/17 20:07:44;;;;;;;4.13;3.58;;;-6.40;99.70;;;;;;5045965;28;20208;-69
2022/12/17 20:10:11;;;;;;;7.32;6.82;;;-6.50;99.90;;;;;;5047993;28;20204;-68
2022/12/17 20:12:39;;;;;;;9.70;2.75;;;-6.50;99.30;;;;;;5032310;28;20598;-68
2022/12/17 20:15:06;;;;;;;2.92;2.83;;;-6.50;99.30;;;;;;5030524;28;20240;-68
2022/12/17 20:17:33;;;;;;;3.40;3.25;;;-6.50;99.30;;;;;;5049540;28;20215;-68
2022/12/17 20:20:00;;;;;;;6.13;5.72;;;-6.50;99.20;;;;;;5032384;28;20296;-68
2022/12/17 20:22:27;;;;;;;2.15;2.15;;;-6.50;99.20;;;;;;5043948;28;20676;-68
2022/12/17 20:24:53;;;;;;;2.78;2.55;;;-6.70;99.90;;;;;;5048992;28;20654;-68
2022/12/17 20:27:20;;;;;;;3.13;3.03;;;-6.60;99.00;;;;;;5036048;28;20820;-68
2022/12/17 20:29:48;;;;;;;3.10;1.60;;;-6.50;99.00;;;;;;5031090;28;20201;-68
2022/12/17 20:32:18;;;;;;;8.90;4.82;;;-6.60;99.00;;;;;;5030192;28;20241;-68
2022/12/17 20:34:44;;;;;;;1.77;1.55;;;-6.60;99.10;;;;;;5044687;28;20204;-68
2022/12/17 20:37:11;;;;;;;9.57;3.00;;;-6.60;99.10;;;;;;5036588;28;20216;-69
2022/12/17 20:39:38;;;;;;;4.47;4.18;;;-6.70;98.90;;;;;;5030145;28;20205;-68
2022/12/17 20:42:05;;;;;;;8.48;5.18;;;-6.70;98.80;;;;;;5030727;28;20208;-67
2022/12/17 20:44:32;;;;;;;2.13;2.08;;;-6.70;98.70;;;;;;5029684;28;20300;-68
2022/12/17 20:47:00;;;;;;;1.70;1.70;;;-6.70;98.60;;;;;;5038226;28;20202;-68
2022/12/17 20:49:27;;;;;;;3.15;2.00;;;-6.70;98.70;;;;;;5047769;28;20201;-68
2022/12/17 20:51:54;;;;;;;6.40;5.78;;;-6.70;98.50;;;;;;5033381;28;20224;-68
2022/12/17 20:54:21;;;;;;;3.63;3.42;;;-6.60;98.60;;;;;;5029578;28;20284;-68
2022/12/17 20:56:47;;;;;;;5.68;5.10;;;-6.70;98.50;;;;;;5034773;28;20230;-68
2022/12/17 20:59:16;;;;;;;5.15;4.65;;;-6.70;98.40;;;;;;5036448;28;20193;-67
2022/12/17 21:01:43;;;;;;;1.88;1.70;;;-6.80;98.20;;;;;;5039507;28;20265;-68
2022/12/17 21:04:12;;;;;;;5.35;2.80;;;-6.80;98.30;;;;;;5048629;28;20730;-67
2022/12/17 21:06:41;;;;;;;2.95;2.75;;;-6.80;98.30;;;;;;5048580;28;20204;-68
2022/12/17 21:09:09;;;;;;;2.83;2.63;;;-6.90;98.00;;;;;;5048520;28;20195;-68
2022/12/17 21:11:37;;;;;;;1.90;1.90;;;-6.90;97.90;;;;;;5036357;28;20765;-67
2022/12/17 21:14:09;;;;;;;2.95;2.75;;;-7.00;97.60;;;;;;5029336;28;20193;-68
2022/12/17 21:16:37;;;;;;;1.92;1.83;;;-7.10;97.60;;;;;;5033570;28;20211;-68
2022/12/17 21:19:05;;;;;;;2.50;2.40;;;-7.10;97.70;;;;;;5027945;28;20279;-69
2022/12/17 21:21:36;;;;;;;3.95;3.28;;;-7.10;97.70;;;;;;5028586;28;20207;-68
2022/12/17 21:24:03;;;;;;;2.78;2.67;;;-7.20;97.40;;;;;;5028867;28;20714;-69
2022/12/17 21:26:32;;;;;;;5.30;3.30;;;-7.10;97.50;;;;;;5027809;28;20497;-68
2022/12/17 21:29:01;;;;;;;2.65;2.55;;;-7.10;97.20;;;;;;5034613;28;20223;-68
2022/12/17 21:31:30;;;;;;;2.15;2.05;;;-7.10;97.30;;;;;;5036362;28;20220;-68
2022/12/17 21:33:58;;;;;;;2.95;2.78;;;-7.20;97.20;;;;;;5028280;28;20201;-68
2022/12/17 21:36:27;;;;;;;9.68;4.22;;;-7.20;97.00;;;;;;5034992;28;20196;-67
2022/12/17 21:38:55;;;;;;;5.93;5.35;;;-7.40;96.90;;;;;;5048019;28;20196;-69
2022/12/17 21:41:24;;;;;;;1.58;1.30;;;-7.40;97.00;;;;;;5036172;28;20207;-68
2022/12/17 21:43:53;;;;;;;4.45;4.15;;;-7.50;96.80;;;;;;5031283;28;20195;-69
2022/12/17 21:46:19;;;;;;;3.17;3.05;;;-7.60;96.70;;;;;;5028553;28;20200;-67
2022/12/17 21:48:46;;;;;;;1.13;1.13;;;-7.70;96.40;;;;;;5028301;28;20275;-68
2022/12/17 21:51:13;;;;;;;2.90;2.80;;;-7.70;96.40;;;;;;5036651;28;20885;-69
2022/12/17 21:53:42;;;;;;;9.20;6.22;;;-7.60;96.80;;;;;;5047277;28;20193;-68
2022/12/17 21:56:12;;;;;;;2.55;2.35;;;-7.70;96.50;;;;;;5042090;28;20976;-68
2022/12/17 21:58:40;;;;;;;3.60;3.50;;;-7.90;96.30;;;;;;5030607;28;20652;-68
2022/12/17 22:01:11;;;;;;;2.92;2.83;;;-7.90;96.10;;;;;;5031009;28;20614;-69
2022/12/17 22:03:38;;;;;;;3.90;1.63;;;-8.00;96.20;;;;;;5027548;28;20207;-68
2022/12/17 22:06:07;;;;;;;4.43;3.90;;;-8.10;96.10;;;;;;5044261;28;20210;-69
2022/12/17 22:08:33;;;;;;;3.72;3.47;;;-8.10;96.20;;;;;;5044577;28;20470;-69
2022/12/17 22:11:00;;;;;;;2.15;2.10;;;-8.00;96.30;;;;;;5026085;28;20254;-69
2022/12/17 22:16:13;;;;;;;5.80;5.40;;;-8.00;96.40;;;;;;5025459;28;20248;-69
2022/12/17 22:18:40;;;;;;;2.28;2.20;;;-8.10;96.00;;;;;;5029999;28;20211;-68
2022/12/17 22:21:07;;;;;;;1.80;1.80;;;-8.10;96.20;;;;;;5037618;28;20243;-68
2022/12/17 22:23:34;;;;;;;1.38;1.38;;;-8.20;99.20;;;;;;5030279;28;20206;-68
2022/12/17 22:26:00;;;;;;;1.63;1.52;;;-8.20;96.10;;;;;;5044684;28;20657;-68
2022/12/17 22:28:29;;;;;;;4.80;3.30;;;-8.20;96.10;;;;;;5041717;28;20568;-68
2022/12/17 22:33:40;;;;;;;4.00;2.85;;;-8.10;96.50;;;;;;5047261;28;20516;-67
2022/12/17 22:36:07;;;;;;;5.13;4.63;;;-8.10;96.30;;;;;;5042313;28;20196;-68
2022/12/17 22:38:34;;;;;;;4.53;3.58;;;-8.10;96.20;;;;;;5027387;28;20201;-68
2022/12/17 22:41:06;;;;;;;2.67;2.58;;;-8.20;96.20;;;;;;5031625;28;20283;-68
2022/12/17 22:43:33;;;;;;;5.15;4.85;;;-8.00;96.20;;;;;;5033098;28;20200;-67
2022/12/17 22:46:01;;;;;;;5.70;3.47;;;-8.10;99.90;;;;;;5027192;28;20236;-68
2022/12/17 22:48:29;;;;;;;4.50;4.25;;;-8.10;96.20;;;;;;5030917;28;20192;-68
2022/12/17 22:50:56;;;;;;;1.70;1.70;;;-8.00;96.20;;;;;;5041278;28;20204;-68
2022/12/17 22:53:24;;;;;;;5.95;5.55;;;-8.10;95.80;;;;;;5027861;28;20219;-67
2022/12/17 22:55:51;;;;;;;7.18;2.70;;;-8.20;95.20;;;;;;5026838;28;20201;-69
2022/12/17 22:58:18;;;;;;;1.88;1.88;;;-8.10;95.10;;;;;;5028501;28;20227;-68
2022/12/17 23:00:46;;;;;;;11.52;3.35;;;-8.10;95.20;;;;;;5035736;28;20295;-68
2022/12/17 23:03:13;;;;;;;4.00;3.83;;;-8.50;95.00;;;;;;5030001;28;20217;-68
2022/12/17 23:05:40;;;;;;;2.42;2.38;;;-8.00;95.30;;;;;;5026719;28;20292;-68
2022/12/17 23:08:07;;;;;;;2.10;2.00;;;-8.00;95.50;;;;;;5030621;28;20196;-69
2022/12/17 23:10:33;;;;;;;3.00;2.83;;;-7.90;95.80;;;;;;5031999;28;20209;-68
2022/12/17 23:13:00;;;;;;;2.53;2.42;;;-7.90;95.90;;;;;;5028362;28;20208;-69
2022/12/17 23:15:32;;;;;;;3.97;3.78;;;-7.90;96.10;;;;;;5018957;28;20554;-68
2022/12/17 23:18:02;;;;;;;2.47;2.38;;;-7.90;96.20;;;;;;5043914;28;20208;-68
2022/12/17 23:20:31;;;;;;;3.53;3.25;;;-7.80;96.50;;;;;;5027481;28;20206;-67
2022/12/17 23:22:58;;;;;;;2.45;2.35;;;-7.00;98.50;;;;;;5046319;28;20230;-68
2022/12/17 23:25:26;;;;;;;2.55;1.92;;;-7.60;97.20;;;;;;5039535;28;20527;-69
2022/12/17 23:27:54;;;;;;;6.90;4.50;;;-7.70;97.20;;;;;;5043910;28;20196;-69
2022/12/17 23:30:21;;;;;;;2.55;2.38;;;-7.80;97.10;;;;;;5045741;28;20601;-68
2022/12/17 23:32:48;;;;;;;7.70;3.58;;;-7.90;97.00;;;;;;5047393;28;20207;-68
2022/12/17 23:35:17;;;;;;;1.67;1.67;;;-8.00;96.70;;;;;;5008067;28;20551;-68
2022/12/17 23:37:43;;;;;;;1.67;1.65;;;-8.10;96.10;;;;;;5038408;28;20204;-69
2022/12/17 23:40:12;;;;;;;2.90;2.80;;;-8.20;95.90;;;;;;5046705;28;20200;-68
2022/12/17 23:42:39;;;;;;;5.78;3.53;;;-8.20;96.10;;;;;;5039882;28;20212;-69
2022/12/17 23:45:09;;;;;;;5.97;5.65;;;-8.10;96.10;;;;;;5041453;28;20207;-68
2022/12/17 23:47:36;;;;;;;3.33;3.13;;;-8.20;96.10;;;;;;5032338;28;20209;-68
2022/12/17 23:50:04;;;;;;;3.10;2.95;;;-8.20;99.50;;;;;;5027153;28;20201;-68
2022/12/17 23:52:32;;;;;;;2.08;2.00;;;-8.30;95.50;;;;;;5045328;28;20207;-68
2022/12/17 23:54:58;;;;;;;8.70;3.97;;;-8.30;95.40;;;;;;5046405;28;20207;-68
2022/12/17 23:57:25;;;;;;;5.20;4.82;;;-8.30;95.30;;;;;;5030297;28;20200;-68
2022/12/17 23:59:52;;;;;;;2.85;2.75;;;-8.20;95.30;;;;;;5042595;28;20200;-68
